createdAt,value
2019-01-16T00:00:43.839Z,92.86
2019-01-16T00:01:43.822Z,92.97
2019-01-16T00:02:43.806Z,92.14
2019-01-16T00:03:43.803Z,92.66
2019-01-16T00:04:43.816Z,92.86
2019-01-16T00:05:43.773Z,92.66
2019-01-16T00:06:43.766Z,92.76
2019-01-16T00:07:43.752Z,92.76
2019-01-16T00:08:43.762Z,92.97
2019-01-16T00:09:43.750Z,93.18
2019-01-16T00:10:43.732Z,92.76
2019-01-16T00:11:43.738Z,92.55
2019-01-16T00:12:43.712Z,92.86
2019-01-16T00:13:43.711Z,93.38
2019-01-16T00:14:43.678Z,92.76
2019-01-16T00:15:43.672Z,92.76
2019-01-16T00:16:43.661Z,92.66
2019-01-16T00:17:43.653Z,92.86
2019-01-16T00:18:43.661Z,92.76
2019-01-16T00:19:43.664Z,93.07
2019-01-16T00:20:43.620Z,92.46
2019-01-16T00:21:43.604Z,93.18
2019-01-16T00:22:43.594Z,92.97
2019-01-16T00:23:43.590Z,93.28
2019-01-16T00:24:43.572Z,92.97
2019-01-16T00:25:43.579Z,92.97
2019-01-16T00:26:43.558Z,92.76
2019-01-16T00:27:43.544Z,92.66
2019-01-16T00:28:43.528Z,92.76
2019-01-16T00:29:43.528Z,92.66
2019-01-16T00:30:43.534Z,92.66
2019-01-16T00:31:43.507Z,92.76
2019-01-16T00:32:43.486Z,92.76
2019-01-16T00:33:43.482Z,92.25
2019-01-16T00:34:43.495Z,92.46
2019-01-16T00:35:43.472Z,92.86
2019-01-16T00:36:43.444Z,92.55
2019-01-16T00:37:43.437Z,92.55
2019-01-16T00:38:43.480Z,92.46
2019-01-16T00:39:43.418Z,92.66
2019-01-16T00:40:43.454Z,92.55
2019-01-16T00:41:43.401Z,92.76
2019-01-16T00:42:43.385Z,92.76
2019-01-16T00:43:43.376Z,92.35
2019-01-16T00:44:43.358Z,92.25
2019-01-16T00:45:43.350Z,92.04
2019-01-16T00:46:43.357Z,92.21
2019-01-16T00:47:43.326Z,91.83
2019-01-16T00:48:43.316Z,92.35
2019-01-16T00:49:43.306Z,92.35
2019-01-16T00:50:43.306Z,92.21
2019-01-16T00:51:43.312Z,92.21
2019-01-16T00:52:43.301Z,92.00
2019-01-16T00:53:43.265Z,92.00
2019-01-16T00:54:43.278Z,92.00
2019-01-16T00:55:43.240Z,91.69
2019-01-16T00:56:43.261Z,92.21
2019-01-16T00:57:43.224Z,92.31
2019-01-16T00:58:43.215Z,92.21
2019-01-16T00:59:43.201Z,92.10
2019-01-16T01:00:43.190Z,92.21
2019-01-16T01:01:43.200Z,92.21
2019-01-16T01:02:43.171Z,92.21
2019-01-16T01:03:43.164Z,92.21
2019-01-16T01:04:43.154Z,92.10
2019-01-16T01:05:43.164Z,91.38
2019-01-16T01:06:43.122Z,91.58
2019-01-16T01:07:43.122Z,92.10
2019-01-16T01:08:43.100Z,92.21
2019-01-16T01:09:43.097Z,92.51
2019-01-16T01:10:43.110Z,92.00
2019-01-16T01:11:43.071Z,91.79
2019-01-16T01:12:43.062Z,92.31
2019-01-16T01:13:43.056Z,92.31
2019-01-16T01:14:43.039Z,92.61
2019-01-16T01:15:43.052Z,92.31
2019-01-16T01:16:43.019Z,92.61
2019-01-16T01:17:43.003Z,93.24
2019-01-16T01:18:42.994Z,92.51
2019-01-16T01:19:42.989Z,92.61
2019-01-16T01:20:42.999Z,92.82
2019-01-16T01:21:42.970Z,92.21
2019-01-16T01:22:42.976Z,92.93
2019-01-16T01:23:42.944Z,93.03
2019-01-16T01:24:42.935Z,92.72
2019-01-16T01:25:42.921Z,93.13
2019-01-16T01:26:42.914Z,93.03
2019-01-16T01:27:42.930Z,93.03
2019-01-16T01:28:42.893Z,92.21
2019-01-16T01:29:42.957Z,92.21
2019-01-16T01:30:42.902Z,92.61
2019-01-16T01:31:42.860Z,92.72
2019-01-16T01:32:42.854Z,92.61
2019-01-16T01:33:42.862Z,92.72
2019-01-16T01:34:42.826Z,92.72
2019-01-16T01:35:42.812Z,92.72
2019-01-16T01:36:42.821Z,93.13
2019-01-16T01:37:42.793Z,93.03
2019-01-16T01:38:42.799Z,92.93
2019-01-16T01:39:42.774Z,93.03
2019-01-16T01:40:42.760Z,92.51
2019-01-16T01:41:42.755Z,92.61
2019-01-16T01:42:42.904Z,92.51
2019-01-16T01:43:42.743Z,92.51
2019-01-16T01:44:42.736Z,92.41
2019-01-16T01:45:42.708Z,92.51
2019-01-16T01:46:42.694Z,92.27
2019-01-16T01:47:42.722Z,92.21
2019-01-16T01:48:42.728Z,92.31
2019-01-16T01:49:42.667Z,92.61
2019-01-16T01:50:42.675Z,92.31
2019-01-16T01:51:42.641Z,92.61
2019-01-16T01:52:42.633Z,92.21
2019-01-16T01:53:42.625Z,92.27
2019-01-16T01:54:42.624Z,92.06
2019-01-16T01:55:42.604Z,92.06
2019-01-16T01:56:42.592Z,91.96
2019-01-16T01:57:42.578Z,91.96
2019-01-16T01:58:42.567Z,91.96
2019-01-16T01:59:42.581Z,91.96
2019-01-16T02:00:42.549Z,92.16
2019-01-16T02:01:42.562Z,92.31
2019-01-16T02:02:42.528Z,92.06
2019-01-16T02:03:42.512Z,92.47
2019-01-16T02:04:42.505Z,91.75
2019-01-16T02:05:42.509Z,92.06
2019-01-16T02:06:42.482Z,92.68
2019-01-16T02:07:42.479Z,92.16
2019-01-16T02:08:42.461Z,92.47
2019-01-16T02:09:42.455Z,92.57
2019-01-16T02:10:42.469Z,92.47
2019-01-16T02:11:42.429Z,92.06
2019-01-16T02:12:42.434Z,91.75
2019-01-16T02:13:42.422Z,92.47
2019-01-16T02:14:42.399Z,92.06
2019-01-16T02:15:42.387Z,92.16
2019-01-16T02:16:42.395Z,92.16
2019-01-16T02:17:42.361Z,92.06
2019-01-16T02:18:47.315Z,91.96
2019-01-16T02:19:43.339Z,92.27
2019-01-16T02:20:42.336Z,92.47
2019-01-16T02:21:42.337Z,92.21
2019-01-16T02:22:42.349Z,92.16
2019-01-16T02:23:42.301Z,92.00
2019-01-16T02:24:42.298Z,92.16
2019-01-16T02:25:42.328Z,91.64
2019-01-16T02:26:42.290Z,92.10
2019-01-16T02:27:42.263Z,91.89
2019-01-16T02:28:42.299Z,91.85
2019-01-16T02:29:42.241Z,91.96
2019-01-16T02:30:42.235Z,91.75
2019-01-16T02:31:42.239Z,91.96
2019-01-16T02:32:42.206Z,92.27
2019-01-16T02:33:42.197Z,92.27
2019-01-16T02:34:42.184Z,92.47
2019-01-16T02:35:42.183Z,92.47
2019-01-16T02:36:42.191Z,92.68
2019-01-16T02:37:42.153Z,92.68
2019-01-16T02:38:42.149Z,92.61
2019-01-16T02:39:42.136Z,92.51
2019-01-16T02:40:42.117Z,92.51
2019-01-16T02:41:42.131Z,93.24
2019-01-16T02:42:42.102Z,93.24
2019-01-16T02:43:42.087Z,93.54
2019-01-16T02:44:42.074Z,93.24
2019-01-16T02:45:42.071Z,93.65
2019-01-16T02:46:42.053Z,93.44
2019-01-16T02:47:42.095Z,93.54
2019-01-16T02:48:42.030Z,93.24
2019-01-16T02:49:42.020Z,93.65
2019-01-16T02:50:42.011Z,93.03
2019-01-16T02:51:41.997Z,93.54
2019-01-16T02:52:42.005Z,93.13
2019-01-16T02:53:41.983Z,93.44
2019-01-16T02:54:41.974Z,93.44
2019-01-16T02:55:41.957Z,93.85
2019-01-16T02:56:41.948Z,93.96
2019-01-16T02:57:41.961Z,93.85
2019-01-16T02:58:41.935Z,93.96
2019-01-16T02:59:41.925Z,94.37
2019-01-16T03:00:41.903Z,94.37
2019-01-16T03:01:41.894Z,94.99
2019-01-16T03:02:41.905Z,94.47
2019-01-16T03:03:41.873Z,94.27
2019-01-16T03:04:41.869Z,94.42
2019-01-16T03:05:41.850Z,94.62
2019-01-16T03:06:41.843Z,94.62
2019-01-16T03:07:41.842Z,94.82
2019-01-16T03:08:41.821Z,94.82
2019-01-16T03:09:41.820Z,94.52
2019-01-16T03:10:41.814Z,94.82
2019-01-16T03:11:41.791Z,95.14
2019-01-16T03:12:41.795Z,95.34
2019-01-16T03:13:41.763Z,95.96
2019-01-16T03:14:41.766Z,95.45
2019-01-16T03:15:41.770Z,95.65
2019-01-16T03:16:41.751Z,95.55
2019-01-16T03:17:41.763Z,96.17
2019-01-16T03:18:41.710Z,96.17
2019-01-16T03:19:41.709Z,96.17
2019-01-16T03:20:41.692Z,96.48
2019-01-16T03:21:41.692Z,97.25
2019-01-16T03:22:41.690Z,97.09
2019-01-16T03:23:41.677Z,97.09
2019-01-16T03:24:41.655Z,96.69
2019-01-16T03:25:41.652Z,97.09
2019-01-16T03:26:41.631Z,97.04
2019-01-16T03:27:41.621Z,96.58
2019-01-16T03:28:41.639Z,97.04
2019-01-16T03:29:41.596Z,96.73
2019-01-16T03:30:41.588Z,96.73
2019-01-16T03:31:41.608Z,97.04
2019-01-16T03:32:41.570Z,97.25
2019-01-16T03:33:41.616Z,97.04
2019-01-16T03:34:41.554Z,96.99
2019-01-16T03:35:41.533Z,97.04
2019-01-16T03:36:41.533Z,97.04
2019-01-16T03:37:41.526Z,96.94
2019-01-16T03:38:41.521Z,97.14
2019-01-16T03:39:41.503Z,96.83
2019-01-16T03:40:41.479Z,97.04
2019-01-16T03:41:41.469Z,96.83
2019-01-16T03:42:41.459Z,97.04
2019-01-16T03:43:41.473Z,96.83
2019-01-16T03:44:41.481Z,97.04
2019-01-16T03:45:41.424Z,96.83
2019-01-16T03:46:41.417Z,97.34
2019-01-16T03:47:41.407Z,97.34
2019-01-16T03:48:41.475Z,97.14
2019-01-16T03:49:41.385Z,97.55
2019-01-16T03:50:41.461Z,96.62
2019-01-16T03:51:41.360Z,96.62
2019-01-16T03:52:41.349Z,96.31
2019-01-16T03:53:41.343Z,96.27
2019-01-16T03:54:41.333Z,96.73
2019-01-16T03:55:41.341Z,96.42
2019-01-16T03:56:41.313Z,96.42
2019-01-16T03:57:41.293Z,96.42
2019-01-16T03:58:41.307Z,96.52
2019-01-16T03:59:41.280Z,96.31
2019-01-16T04:00:41.274Z,96.11
2019-01-16T04:01:41.279Z,95.70
2019-01-16T04:02:41.269Z,95.70
2019-01-16T04:03:41.233Z,95.80
2019-01-16T04:04:41.221Z,95.80
2019-01-16T04:05:41.209Z,95.59
2019-01-16T04:06:41.226Z,95.80
2019-01-16T04:07:41.199Z,95.80
2019-01-16T04:08:41.179Z,95.80
2019-01-16T04:09:41.171Z,95.80
2019-01-16T04:10:41.166Z,95.70
2019-01-16T04:11:41.192Z,95.49
2019-01-16T04:12:41.138Z,95.59
2019-01-16T04:13:41.128Z,95.90
2019-01-16T04:14:41.141Z,95.80
2019-01-16T04:15:41.107Z,96.01
2019-01-16T04:16:41.093Z,96.11
2019-01-16T04:17:41.103Z,95.39
2019-01-16T04:18:41.075Z,95.70
2019-01-16T04:19:41.073Z,95.80
2019-01-16T04:20:41.082Z,94.97
2019-01-16T04:21:41.043Z,94.56
2019-01-16T04:22:41.063Z,94.82
2019-01-16T04:23:41.038Z,94.97
2019-01-16T04:24:41.008Z,95.49
2019-01-16T04:25:41.012Z,94.97
2019-01-16T04:26:40.987Z,94.93
2019-01-16T04:27:40.981Z,94.52
2019-01-16T04:28:40.989Z,94.56
2019-01-16T04:29:40.979Z,94.93
2019-01-16T04:30:40.947Z,94.87
2019-01-16T04:31:40.948Z,94.82
2019-01-16T04:32:40.928Z,94.77
2019-01-16T04:33:40.938Z,94.35
2019-01-16T04:34:40.928Z,94.67
2019-01-16T04:35:40.894Z,94.46
2019-01-16T04:36:40.890Z,93.94
2019-01-16T04:37:40.892Z,94.46
2019-01-16T04:38:40.878Z,94.46
2019-01-16T04:39:40.865Z,94.46
2019-01-16T04:40:40.876Z,94.15
2019-01-16T04:41:40.828Z,94.25
2019-01-16T04:42:40.819Z,94.42
2019-01-16T04:43:40.823Z,93.63
2019-01-16T04:44:40.809Z,93.94
2019-01-16T04:45:40.791Z,93.73
2019-01-16T04:46:40.812Z,93.79
2019-01-16T04:47:40.764Z,93.12
2019-01-16T04:48:40.769Z,93.32
2019-01-16T04:49:40.781Z,93.59
2019-01-16T04:50:40.731Z,93.18
2019-01-16T04:51:40.721Z,93.18
2019-01-16T04:52:40.712Z,93.12
2019-01-16T04:53:40.705Z,93.22
2019-01-16T04:54:40.687Z,93.43
2019-01-16T04:55:40.705Z,92.80
2019-01-16T04:56:40.667Z,92.76
2019-01-16T04:57:40.655Z,93.01
2019-01-16T04:58:40.649Z,92.40
2019-01-16T04:59:40.645Z,92.40
2019-01-16T05:00:40.652Z,93.07
2019-01-16T05:01:40.610Z,92.86
2019-01-16T05:02:40.607Z,92.35
2019-01-16T05:03:40.604Z,92.55
2019-01-16T05:04:40.592Z,92.50
2019-01-16T05:05:40.591Z,92.35
2019-01-16T05:06:40.561Z,92.66
2019-01-16T05:07:40.547Z,92.25
2019-01-16T05:08:40.541Z,92.35
2019-01-16T05:09:40.542Z,92.46
2019-01-16T05:10:40.530Z,92.35
2019-01-16T05:11:40.515Z,92.40
2019-01-16T05:12:40.493Z,92.25
2019-01-16T05:13:40.487Z,92.04
2019-01-16T05:14:40.475Z,91.42
2019-01-16T05:15:40.489Z,91.22
2019-01-16T05:16:40.460Z,91.11
2019-01-16T05:17:40.442Z,91.22
2019-01-16T05:18:41.577Z,91.42
2019-01-16T05:19:40.424Z,90.95
2019-01-16T05:20:40.452Z,91.16
2019-01-16T05:21:40.401Z,90.64
2019-01-16T05:22:40.394Z,90.80
2019-01-16T05:23:40.382Z,90.70
2019-01-16T05:24:40.367Z,90.49
2019-01-16T05:25:40.358Z,90.80
2019-01-16T05:26:40.365Z,90.59
2019-01-16T05:27:40.335Z,90.59
2019-01-16T05:28:40.330Z,90.28
2019-01-16T05:29:40.313Z,90.39
2019-01-16T05:30:40.304Z,90.28
2019-01-16T05:31:40.321Z,90.49
2019-01-16T05:32:40.296Z,90.33
2019-01-16T05:33:40.276Z,90.39
2019-01-16T05:34:40.270Z,89.25
2019-01-16T05:35:40.252Z,89.36
2019-01-16T05:36:40.263Z,88.95
2019-01-16T05:37:40.227Z,89.29
2019-01-16T05:38:40.216Z,88.74
2019-01-16T05:39:40.212Z,88.84
2019-01-16T05:40:40.203Z,88.74
2019-01-16T05:41:40.213Z,88.43
2019-01-16T05:42:40.172Z,88.64
2019-01-16T05:43:40.173Z,88.53
2019-01-16T05:44:40.156Z,88.43
2019-01-16T05:45:40.145Z,88.43
2019-01-16T05:46:40.337Z,88.95
2019-01-16T05:47:40.134Z,88.95
2019-01-16T05:48:40.110Z,86.98
2019-01-16T05:49:46.562Z,87.40
2019-01-16T05:50:41.086Z,87.19
2019-01-16T05:51:40.085Z,86.98
2019-01-16T05:52:40.101Z,86.98
2019-01-16T05:53:40.064Z,87.08
2019-01-16T05:54:40.043Z,87.29
2019-01-16T05:55:40.045Z,87.34
2019-01-16T05:56:40.036Z,87.13
2019-01-16T05:57:40.037Z,87.44
2019-01-16T05:58:40.008Z,87.34
2019-01-16T05:59:39.994Z,87.44
2019-01-16T06:00:39.980Z,86.61
2019-01-16T06:01:39.971Z,86.51
2019-01-16T06:02:39.978Z,86.61
2019-01-16T06:03:39.958Z,86.51
2019-01-16T06:04:39.940Z,86.47
2019-01-16T06:05:39.926Z,86.51
2019-01-16T06:06:39.930Z,86.41
2019-01-16T06:07:39.922Z,86.61
2019-01-16T06:08:39.898Z,86.41
2019-01-16T06:09:39.895Z,86.26
2019-01-16T06:10:39.881Z,86.71
2019-01-16T06:11:39.891Z,85.99
2019-01-16T06:12:39.878Z,85.95
2019-01-16T06:13:39.847Z,86.16
2019-01-16T06:14:39.838Z,86.61
2019-01-16T06:15:39.822Z,86.41
2019-01-16T06:16:39.832Z,86.20
2019-01-16T06:17:39.798Z,86.82
2019-01-16T06:18:39.808Z,86.51
2019-01-16T06:19:39.781Z,86.61
2019-01-16T06:20:39.778Z,86.61
2019-01-16T06:21:39.758Z,86.71
2019-01-16T06:22:39.751Z,86.61
2019-01-16T06:23:39.759Z,86.57
2019-01-16T06:24:39.729Z,86.82
2019-01-16T06:25:39.989Z,86.51
2019-01-16T06:26:39.708Z,86.61
2019-01-16T06:27:39.714Z,86.51
2019-01-16T06:28:39.708Z,86.51
2019-01-16T06:29:39.672Z,86.51
2019-01-16T06:30:39.668Z,86.51
2019-01-16T06:31:39.653Z,86.41
2019-01-16T06:32:39.644Z,86.51
2019-01-16T06:33:39.682Z,86.51
2019-01-16T06:34:39.621Z,86.51
2019-01-16T06:35:39.623Z,86.51
2019-01-16T06:36:39.609Z,87.13
2019-01-16T06:37:39.597Z,87.74
2019-01-16T06:38:39.584Z,86.61
2019-01-16T06:39:39.683Z,87.74
2019-01-16T06:40:39.561Z,86.51
2019-01-16T06:41:39.551Z,87.85
2019-01-16T06:42:39.537Z,87.95
2019-01-16T06:43:39.530Z,87.34
2019-01-16T06:44:39.539Z,87.23
2019-01-16T06:45:39.502Z,87.34
2019-01-16T06:46:39.491Z,87.54
2019-01-16T06:47:39.480Z,87.23
2019-01-16T06:48:39.474Z,87.34
2019-01-16T06:49:39.572Z,87.02
2019-01-16T06:50:39.449Z,87.54
2019-01-16T06:51:48.378Z,87.54
2019-01-16T06:52:39.573Z,87.23
2019-01-16T06:53:39.416Z,87.23
2019-01-16T06:54:39.463Z,87.02
2019-01-16T06:55:39.395Z,87.02
2019-01-16T06:56:39.388Z,87.34
2019-01-16T06:57:39.376Z,86.92
2019-01-16T06:58:39.890Z,87.34
2019-01-16T06:59:39.891Z,87.65
2019-01-16T07:00:39.363Z,87.44
2019-01-16T07:01:39.358Z,87.27
2019-01-16T07:02:39.321Z,87.44
2019-01-16T07:03:39.323Z,87.79
2019-01-16T07:04:39.310Z,87.23
2019-01-16T07:05:39.312Z,87.23
2019-01-16T07:06:39.286Z,87.27
2019-01-16T07:07:39.268Z,87.65
2019-01-16T07:08:39.262Z,87.65
2019-01-16T07:09:39.252Z,87.54
2019-01-16T07:10:39.266Z,87.85
2019-01-16T07:11:39.256Z,87.68
2019-01-16T07:12:39.256Z,87.58
2019-01-16T07:13:39.246Z,87.34
2019-01-16T07:14:39.230Z,87.65
2019-01-16T07:15:47.469Z,87.23
2019-01-16T07:17:40.427Z,88.06
2019-01-16T07:19:00.195Z,88.10
2019-01-16T07:20:00.171Z,87.34
2019-01-16T07:21:00.203Z,87.65
2019-01-16T07:22:00.139Z,87.65
2019-01-16T07:22:55.650Z,87.65
2019-01-16T07:23:41.972Z,87.74
2019-01-16T07:24:39.124Z,87.34
2019-01-16T07:25:39.080Z,88.16
2019-01-16T07:26:39.075Z,88.06
2019-01-16T07:27:39.077Z,87.95
2019-01-16T07:28:39.140Z,87.99
2019-01-16T07:29:39.069Z,88.16
2019-01-16T07:30:39.066Z,88.06
2019-01-16T07:31:39.087Z,87.65
2019-01-16T07:32:39.033Z,87.54
2019-01-16T07:33:39.035Z,87.23
2019-01-16T07:35:48.563Z,86.71
2019-01-16T07:36:48.572Z,87.23
2019-01-16T07:37:48.594Z,87.48
2019-01-16T07:38:48.536Z,88.06
2019-01-16T07:39:48.553Z,87.65
2019-01-16T07:40:48.514Z,87.48
2019-01-16T07:41:48.519Z,87.44
2019-01-16T07:42:48.567Z,86.96
2019-01-16T07:43:48.496Z,87.02
2019-01-16T07:44:48.469Z,87.44
2019-01-16T07:45:48.492Z,87.68
2019-01-16T07:46:48.547Z,87.02
2019-01-16T07:47:48.434Z,87.54
2019-01-16T07:48:48.516Z,87.23
2019-01-16T07:49:48.434Z,87.34
2019-01-16T07:50:48.452Z,87.74
2019-01-16T07:51:48.416Z,87.34
2019-01-16T07:52:48.430Z,87.85
2019-01-16T07:53:48.446Z,87.95
2019-01-16T07:54:48.359Z,87.74
2019-01-16T07:55:48.357Z,87.74
2019-01-16T07:56:48.345Z,87.44
2019-01-16T07:57:48.356Z,87.44
2019-01-16T07:58:48.346Z,87.34
2019-01-16T07:59:48.306Z,87.34
2019-01-16T08:00:48.350Z,87.17
2019-01-16T08:01:48.297Z,87.13
2019-01-16T08:02:48.468Z,87.44
2019-01-16T08:03:48.313Z,87.34
2019-01-16T08:04:48.277Z,87.44
2019-01-16T08:05:48.256Z,87.44
2019-01-16T08:06:48.233Z,87.65
2019-01-16T08:07:48.223Z,86.92
2019-01-16T08:08:48.234Z,87.02
2019-01-16T08:09:48.236Z,87.54
2019-01-16T08:10:48.195Z,87.65
2019-01-16T08:11:48.282Z,87.13
2019-01-16T08:12:48.203Z,87.74
2019-01-16T08:13:48.178Z,87.34
2019-01-16T08:14:48.142Z,87.65
2019-01-16T08:15:48.132Z,86.51
2019-01-16T08:16:48.124Z,86.44
2019-01-16T08:17:48.120Z,86.51
2019-01-16T08:18:48.228Z,86.51
2019-01-16T08:19:48.126Z,86.82
2019-01-16T08:20:48.108Z,86.71
2019-01-16T08:21:48.070Z,86.41
2019-01-16T08:22:48.064Z,86.51
2019-01-16T08:23:48.075Z,86.41
2019-01-16T08:24:48.051Z,86.61
2019-01-16T08:25:48.061Z,86.20
2019-01-16T08:26:48.019Z,86.36
2019-01-16T08:27:48.020Z,86.41
2019-01-16T08:28:48.593Z,85.89
2019-01-16T08:29:48.016Z,86.10
2019-01-16T08:30:48.000Z,85.85
2019-01-16T08:31:47.978Z,85.85
2019-01-16T08:32:47.952Z,85.85
2019-01-16T08:33:47.945Z,85.95
2019-01-16T08:34:47.957Z,85.95
2019-01-16T08:35:47.952Z,85.85
2019-01-16T08:36:47.920Z,85.85
2019-01-16T08:37:47.930Z,85.75
2019-01-16T08:38:47.894Z,85.44
2019-01-16T08:39:47.902Z,85.54
2019-01-16T08:40:47.876Z,85.44
2019-01-16T08:41:47.869Z,85.75
2019-01-16T08:42:47.859Z,85.54
2019-01-16T08:43:47.856Z,84.72
2019-01-16T08:44:47.843Z,85.44
2019-01-16T08:45:47.813Z,85.33
2019-01-16T08:46:47.809Z,85.33
2019-01-16T08:47:47.796Z,85.13
2019-01-16T08:48:47.796Z,85.13
2019-01-16T08:49:47.775Z,85.44
2019-01-16T08:50:47.847Z,85.13
2019-01-16T08:51:47.766Z,84.92
2019-01-16T08:52:47.749Z,85.44
2019-01-16T08:53:47.734Z,85.44
2019-01-16T08:54:47.750Z,85.02
2019-01-16T08:55:47.785Z,85.13
2019-01-16T08:56:47.703Z,85.33
2019-01-16T08:57:47.693Z,84.61
2019-01-16T08:58:47.688Z,84.61
2019-01-16T08:59:47.676Z,85.23
2019-01-16T09:00:47.684Z,85.02
2019-01-16T09:01:47.654Z,85.13
2019-01-16T09:02:47.678Z,85.44
2019-01-16T09:03:47.638Z,85.54
2019-01-16T09:04:47.649Z,84.92
2019-01-16T09:05:47.644Z,85.13
2019-01-16T09:06:47.590Z,85.23
2019-01-16T09:07:47.581Z,85.02
2019-01-16T09:08:47.570Z,85.13
2019-01-16T09:09:47.560Z,85.39
2019-01-16T09:10:47.591Z,85.50
2019-01-16T09:11:47.549Z,85.85
2019-01-16T09:12:47.526Z,85.85
2019-01-16T09:13:47.515Z,85.75
2019-01-16T09:14:47.512Z,86.05
2019-01-16T09:15:47.517Z,85.85
2019-01-16T09:16:47.513Z,86.47
2019-01-16T09:17:47.476Z,86.05
2019-01-16T09:18:47.461Z,86.16
2019-01-16T09:19:47.519Z,86.05
2019-01-16T09:20:47.483Z,86.05
2019-01-16T09:21:47.460Z,85.95
2019-01-16T09:23:48.475Z,85.85
2019-01-16T09:24:47.452Z,86.05
2019-01-16T09:25:47.461Z,85.64
2019-01-16T09:27:48.637Z,86.16
2019-01-16T09:28:47.469Z,85.75
2019-01-16T09:29:47.418Z,85.95
2019-01-16T09:30:47.425Z,85.95
2019-01-16T09:31:47.407Z,86.02
2019-01-16T09:32:47.540Z,85.91
2019-01-16T09:33:47.307Z,85.81
2019-01-16T09:34:47.293Z,86.12
2019-01-16T09:35:47.315Z,86.05
2019-01-16T09:36:47.289Z,85.95
2019-01-16T09:37:47.270Z,86.05
2019-01-16T09:38:47.247Z,86.47
2019-01-16T09:39:47.239Z,86.36
2019-01-16T09:40:47.312Z,86.05
2019-01-16T09:41:47.229Z,85.95
2019-01-16T09:42:47.208Z,86.05
2019-01-16T09:43:47.203Z,86.05
2019-01-16T09:44:47.206Z,86.05
2019-01-16T09:45:47.223Z,86.36
2019-01-16T09:46:47.201Z,85.54
2019-01-16T09:47:47.192Z,85.54
2019-01-16T09:48:47.146Z,85.50
2019-01-16T09:49:47.154Z,84.99
2019-01-16T09:50:47.951Z,85.39
2019-01-16T09:51:47.121Z,84.88
2019-01-16T09:52:47.104Z,85.39
2019-01-16T09:53:47.089Z,85.09
2019-01-16T09:54:47.081Z,85.39
2019-01-16T09:55:47.124Z,85.19
2019-01-16T09:56:47.103Z,85.30
2019-01-16T09:57:47.111Z,84.99
2019-01-16T09:58:47.069Z,84.88
2019-01-16T09:59:47.053Z,85.09
2019-01-16T10:00:47.051Z,84.99
2019-01-16T10:01:47.166Z,84.67
2019-01-16T10:02:47.029Z,84.78
2019-01-16T10:03:46.980Z,84.67
2019-01-16T10:04:46.967Z,84.78
2019-01-16T10:05:47.015Z,84.88
2019-01-16T10:06:47.125Z,84.88
2019-01-16T10:07:46.949Z,84.99
2019-01-16T10:08:46.931Z,85.09
2019-01-16T10:09:46.921Z,84.88
2019-01-16T10:10:46.947Z,84.78
2019-01-16T10:11:47.040Z,84.57
2019-01-16T10:12:46.913Z,84.06
2019-01-16T10:13:46.899Z,84.47
2019-01-16T10:14:46.875Z,83.75
2019-01-16T10:15:46.906Z,84.06
2019-01-16T10:16:46.953Z,83.95
2019-01-16T10:17:46.895Z,83.85
2019-01-16T10:18:46.844Z,83.54
2019-01-16T10:19:46.877Z,83.75
2019-01-16T10:20:46.851Z,83.54
2019-01-16T10:21:46.845Z,84.16
2019-01-16T10:22:46.805Z,83.85
2019-01-16T10:23:46.800Z,83.95
2019-01-16T10:24:46.772Z,83.54
2019-01-16T10:25:46.762Z,83.44
2019-01-16T10:26:46.734Z,83.23
2019-01-16T10:27:46.801Z,83.54
2019-01-16T10:28:46.727Z,83.13
2019-01-16T10:29:46.733Z,83.33
2019-01-16T10:30:46.743Z,83.13
2019-01-16T10:31:46.709Z,82.92
2019-01-16T10:32:46.699Z,83.13
2019-01-16T10:33:46.683Z,83.23
2019-01-16T10:34:46.651Z,82.92
2019-01-16T10:35:46.655Z,82.71
2019-01-16T10:36:46.635Z,83.13
2019-01-16T10:37:46.648Z,82.71
2019-01-16T10:38:46.626Z,82.71
2019-01-16T10:39:46.603Z,82.71
2019-01-16T10:40:46.620Z,82.71
2019-01-16T10:41:46.580Z,82.92
2019-01-16T10:42:46.647Z,82.96
2019-01-16T10:43:46.623Z,82.71
2019-01-16T10:44:46.547Z,82.40
2019-01-16T10:45:46.551Z,82.82
2019-01-16T10:46:46.519Z,82.30
2019-01-16T10:47:46.563Z,82.30
2019-01-16T10:48:49.787Z,82.51
2019-01-16T10:49:46.495Z,82.40
2019-01-16T10:50:46.487Z,82.40
2019-01-16T10:51:46.477Z,82.40
2019-01-16T10:52:46.475Z,82.51
2019-01-16T10:53:46.459Z,82.51
2019-01-16T10:54:46.446Z,82.20
2019-01-16T10:55:46.432Z,82.51
2019-01-16T10:56:46.438Z,82.20
2019-01-16T10:57:46.528Z,82.40
2019-01-16T10:58:46.393Z,82.40
2019-01-16T10:59:46.383Z,81.48
2019-01-16T11:00:46.397Z,81.68
2019-01-16T11:01:46.386Z,81.89
2019-01-16T11:02:46.358Z,81.37
2019-01-16T11:03:46.397Z,81.79
2019-01-16T11:04:46.332Z,82.40
2019-01-16T11:05:46.378Z,81.58
2019-01-16T11:06:46.340Z,82.51
2019-01-16T11:07:46.331Z,82.61
2019-01-16T11:08:46.406Z,81.07
2019-01-16T11:09:46.313Z,81.58
2019-01-16T11:10:46.280Z,81.23
2019-01-16T11:11:46.285Z,81.44
2019-01-16T11:12:46.258Z,81.44
2019-01-16T11:13:46.370Z,81.13
2019-01-16T11:14:46.252Z,80.93
2019-01-16T11:15:46.227Z,80.82
2019-01-16T11:16:46.206Z,81.03
2019-01-16T11:17:46.201Z,80.82
2019-01-16T11:18:46.205Z,81.13
2019-01-16T11:19:46.180Z,80.82
2019-01-16T11:20:46.162Z,80.72
2019-01-16T11:21:46.146Z,81.03
2019-01-16T11:22:46.173Z,80.93
2019-01-16T11:23:46.144Z,80.62
2019-01-16T11:24:46.145Z,80.51
2019-01-16T11:25:46.121Z,80.62
2019-01-16T11:26:46.096Z,81.09
2019-01-16T11:27:46.114Z,80.93
2019-01-16T11:28:46.101Z,80.62
2019-01-16T11:29:46.099Z,80.30
2019-01-16T11:30:46.052Z,80.62
2019-01-16T11:31:46.042Z,80.47
2019-01-16T11:32:46.037Z,80.79
2019-01-16T11:33:46.026Z,80.68
2019-01-16T11:34:46.033Z,80.58
2019-01-16T11:35:45.995Z,79.65
2019-01-16T11:36:45.988Z,80.06
2019-01-16T11:37:45.980Z,79.55
2019-01-16T11:38:45.978Z,79.65
2019-01-16T11:39:46.048Z,80.16
2019-01-16T11:40:45.974Z,80.06
2019-01-16T11:41:45.936Z,79.65
2019-01-16T11:42:45.926Z,79.86
2019-01-16T11:43:45.930Z,80.06
2019-01-16T11:44:45.925Z,80.27
2019-01-16T11:45:45.953Z,79.96
2019-01-16T11:46:45.895Z,80.23
2019-01-16T11:47:45.869Z,79.86
2019-01-16T11:48:45.864Z,79.93
2019-01-16T11:49:45.852Z,79.75
2019-01-16T11:50:45.871Z,79.93
2019-01-16T11:51:45.845Z,79.61
2019-01-16T11:52:45.830Z,79.20
2019-01-16T11:53:45.842Z,79.10
2019-01-16T11:54:45.805Z,79.10
2019-01-16T11:55:45.862Z,79.86
2019-01-16T11:56:45.782Z,79.72
2019-01-16T11:57:45.783Z,80.23
2019-01-16T11:58:45.770Z,79.86
2019-01-16T11:59:45.744Z,79.61
2019-01-16T12:00:45.731Z,79.96
2019-01-16T12:01:45.772Z,80.16
2019-01-16T12:02:45.718Z,80.37
2019-01-16T12:03:45.722Z,80.06
2019-01-16T12:04:45.695Z,80.16
2019-01-16T12:05:45.689Z,80.16
2019-01-16T12:06:45.683Z,80.16
2019-01-16T12:07:45.676Z,80.16
2019-01-16T12:08:45.651Z,80.16
2019-01-16T12:09:45.660Z,80.16
2019-01-16T12:10:45.639Z,80.06
2019-01-16T12:11:45.643Z,80.16
2019-01-16T12:12:45.608Z,80.27
2019-01-16T12:13:45.607Z,79.65
2019-01-16T12:14:45.593Z,79.65
2019-01-16T12:15:45.580Z,80.47
2019-01-16T12:16:45.638Z,79.75
2019-01-16T12:17:45.551Z,80.16
2019-01-16T12:18:45.567Z,80.06
2019-01-16T12:19:45.536Z,80.06
2019-01-16T12:20:45.533Z,79.96
2019-01-16T12:21:45.533Z,79.75
2019-01-16T12:22:45.584Z,79.44
2019-01-16T12:23:45.489Z,78.72
2019-01-16T12:24:45.481Z,79.24
2019-01-16T12:25:45.470Z,79.48
2019-01-16T12:26:45.486Z,79.34
2019-01-16T12:27:45.466Z,79.75
2019-01-16T12:28:45.433Z,79.34
2019-01-16T12:29:45.425Z,79.86
2019-01-16T12:30:45.418Z,79.44
2019-01-16T12:31:45.407Z,79.65
2019-01-16T12:32:45.428Z,79.44
2019-01-16T12:33:45.404Z,79.34
2019-01-16T12:34:45.374Z,79.44
2019-01-16T12:35:45.366Z,79.65
2019-01-16T12:36:45.351Z,79.24
2019-01-16T12:37:45.364Z,79.34
2019-01-16T12:38:45.332Z,78.93
2019-01-16T12:39:45.422Z,79.03
2019-01-16T12:40:45.338Z,79.14
2019-01-16T12:41:45.295Z,79.14
2019-01-16T12:42:45.290Z,79.34
2019-01-16T12:43:45.306Z,78.83
2019-01-16T12:44:45.264Z,79.14
2019-01-16T12:45:45.299Z,78.62
2019-01-16T12:46:45.241Z,78.31
2019-01-16T12:47:45.239Z,78.52
2019-01-16T12:48:45.241Z,78.52
2019-01-16T12:49:45.210Z,78.31
2019-01-16T12:50:45.207Z,78.52
2019-01-16T12:51:45.191Z,78.00
2019-01-16T12:52:45.176Z,78.11
2019-01-16T12:53:45.182Z,77.97
2019-01-16T12:54:45.194Z,78.62
2019-01-16T12:55:45.161Z,78.48
2019-01-16T12:56:45.145Z,78.11